Time;durP1;ratioP1;P1;durP2;ratioP2;P2;SDS_P1;SDS_P2;PMS_P1;PMS_P2;Temp;Humidity;BMP_temperature;BMP_pressure;BME280_temperature;BME280_humidity;BME280_pressure;Samples;Min_cycle;Max_cycle;Signal;HPM_P1;HPM_P2
2023/08/17 00:00:05;;;;;;;5.00;5.00;;;18.50;99.90;;;;;;4964037;28;20471;-66
2023/08/17 00:02:32;;;;;;;5.00;5.00;;;18.50;99.90;;;;;;4968809;28;20452;-66
2023/08/17 00:04:59;;;;;;;5.00;5.00;;;18.60;99.90;;;;;;4968320;28;20562;-66
2023/08/17 00:07:26;;;;;;;5.13;5.03;;;18.60;99.90;;;;;;4969620;28;20455;-67
2023/08/17 00:09:53;;;;;;;5.60;5.50;;;18.60;99.90;;;;;;4969942;28;20514;-66
2023/08/17 00:12:21;;;;;;;5.20;5.10;;;18.60;99.90;;;;;;4968685;28;20581;-66
2023/08/17 00:14:48;;;;;;;5.87;5.77;;;18.60;99.90;;;;;;4965862;28;20491;-66
2023/08/17 00:17:15;;;;;;;5.80;5.70;;;18.60;99.90;;;;;;4966525;28;20483;-66
2023/08/17 00:19:41;;;;;;;6.13;6.03;;;18.70;99.90;;;;;;4969889;28;20455;-66
2023/08/17 00:22:08;;;;;;;5.63;5.53;;;18.70;99.90;;;;;;4969589;28;20491;-67
2023/08/17 00:24:37;;;;;;;6.07;5.97;;;18.70;99.90;;;;;;4968569;28;20467;-66
2023/08/17 00:27:04;;;;;;;6.40;6.30;;;18.60;99.90;;;;;;4966158;28;20515;-66
2023/08/17 00:29:35;;;;;;;5.90;5.80;;;18.60;99.90;;;;;;4966279;28;20471;-67
2023/08/17 00:32:01;;;;;;;5.70;5.60;;;18.70;99.90;;;;;;4969868;28;20530;-66
2023/08/17 00:34:28;;;;;;;5.30;5.20;;;18.60;99.90;;;;;;4968421;28;20459;-66
2023/08/17 00:36:55;;;;;;;5.40;5.30;;;18.60;99.90;;;;;;4971217;28;20932;-67
2023/08/17 00:39:22;;;;;;;5.30;5.20;;;18.50;99.90;;;;;;4968597;28;20471;-66
2023/08/17 00:41:49;;;;;;;5.47;5.37;;;18.60;99.90;;;;;;4967647;28;21370;-66
2023/08/17 00:44:17;;;;;;;5.37;5.27;;;18.60;99.90;;;;;;4973446;28;20828;-66
2023/08/17 00:46:46;;;;;;;5.10;5.00;;;18.60;99.90;;;;;;4977339;28;20471;-66
2023/08/17 00:49:13;;;;;;;4.57;4.47;;;18.60;99.90;;;;;;4970851;28;20475;-66
2023/08/17 00:51:40;;;;;;;5.10;5.00;;;18.50;99.90;;;;;;4973180;28;20466;-66
2023/08/17 00:54:07;;;;;;;4.90;4.80;;;18.60;99.90;;;;;;4977673;28;20850;-68
2023/08/17 00:56:34;;;;;;;4.97;4.87;;;18.50;99.90;;;;;;4991664;28;20451;-66
2023/08/17 00:59:01;;;;;;;4.83;4.73;;;18.50;99.90;;;;;;4990415;28;20467;-67
2023/08/17 01:01:28;;;;;;;4.90;4.80;;;18.40;99.90;;;;;;4991145;28;21001;-66
2023/08/17 01:03:57;;;;;;;4.87;4.77;;;18.50;99.90;;;;;;4992729;28;20821;-67
2023/08/17 01:06:24;;;;;;;4.00;4.00;;;18.60;99.90;;;;;;4988824;28;20489;-66
2023/08/17 01:08:51;;;;;;;4.37;4.27;;;18.50;99.90;;;;;;4989677;28;20566;-66
2023/08/17 01:11:26;;;;;;;3.80;3.80;;;18.50;99.90;;;;;;4991082;28;20954;-66
2023/08/17 01:14:00;;;;;;;4.03;4.03;;;18.50;99.90;;;;;;4992060;28;20482;-66
2023/08/17 01:16:32;;;;;;;3.70;3.70;;;18.50;99.90;;;;;;4991754;28;20454;-66
2023/08/17 01:19:02;;;;;;;3.40;3.40;;;18.50;99.90;;;;;;4991844;28;21000;-66
2023/08/17 01:21:38;;;;;;;3.73;3.73;;;18.50;99.90;;;;;;4990835;28;20502;-66
2023/08/17 01:24:07;;;;;;;3.50;3.50;;;18.50;99.90;;;;;;4988866;28;20470;-66
2023/08/17 01:26:33;;;;;;;3.97;3.97;;;18.50;99.90;;;;;;4988871;28;20458;-66
2023/08/17 01:29:01;;;;;;;3.60;3.60;;;18.60;99.90;;;;;;4992078;28;20454;-66
2023/08/17 01:31:33;;;;;;;3.60;3.60;;;18.50;99.90;;;;;;4992060;28;20469;-66
2023/08/17 01:34:07;;;;;;;4.33;4.23;;;18.50;99.90;;;;;;4991944;28;20521;-66
2023/08/17 01:36:38;;;;;;;4.20;4.10;;;18.60;99.90;;;;;;4991316;28;20606;-67
2023/08/17 01:39:09;;;;;;;3.60;3.60;;;18.50;99.90;;;;;;4989864;28;20561;-67
2023/08/17 01:41:38;;;;;;;3.50;3.50;;;18.50;99.90;;;;;;4989140;28;20493;-67
2023/08/17 01:44:06;;;;;;;4.00;3.90;;;18.40;99.90;;;;;;4988368;28;20471;-67
2023/08/17 01:46:35;;;;;;;3.90;3.90;;;18.50;99.90;;;;;;4991784;28;20883;-67
2023/08/17 01:49:02;;;;;;;3.53;3.53;;;18.50;99.90;;;;;;4991717;28;20451;-66
2023/08/17 01:51:31;;;;;;;3.50;3.50;;;18.50;99.90;;;;;;4988147;28;20984;-66
2023/08/17 01:53:58;;;;;;;3.50;3.50;;;18.50;99.90;;;;;;4984822;28;20479;-66
2023/08/17 01:56:27;;;;;;;3.50;3.50;;;18.50;99.90;;;;;;4972300;28;20463;-67
2023/08/17 01:58:54;;;;;;;3.80;3.80;;;18.60;99.90;;;;;;4970793;28;20470;-67
2023/08/17 02:01:21;;;;;;;3.50;3.50;;;18.50;99.90;;;;;;4967316;28;20510;-67
2023/08/17 02:03:48;;;;;;;3.43;3.43;;;18.50;99.90;;;;;;4971799;28;20460;-66
2023/08/17 02:06:15;;;;;;;4.20;4.10;;;18.60;99.90;;;;;;4972143;28;20482;-67
2023/08/17 02:08:42;;;;;;;3.47;3.47;;;18.60;99.90;;;;;;4970684;28;20570;-66
2023/08/17 02:11:10;;;;;;;3.17;3.17;;;18.70;99.90;;;;;;4971923;28;20556;-67
2023/08/17 02:13:38;;;;;;;4.10;4.00;;;18.60;99.90;;;;;;4966929;28;20511;-66
2023/08/17 02:16:05;;;;;;;3.80;3.70;;;18.70;99.90;;;;;;4968602;28;20459;-66
2023/08/17 02:18:34;;;;;;;4.10;4.00;;;18.60;99.90;;;;;;4971536;28;20786;-67
2023/08/17 02:21:01;;;;;;;4.53;4.40;;;18.60;99.90;;;;;;4970581;28;21021;-67
2023/08/17 02:23:29;;;;;;;4.27;4.17;;;18.60;99.90;;;;;;4971803;28;20826;-67
2023/08/17 02:25:56;;;;;;;3.50;3.50;;;18.60;99.90;;;;;;4966877;28;20472;-67
2023/08/17 02:28:23;;;;;;;4.20;4.10;;;18.70;99.90;;;;;;4969360;28;20467;-67
2023/08/17 02:30:56;;;;;;;4.43;4.33;;;18.60;99.90;;;;;;4970218;28;20954;-67
2023/08/17 02:33:23;;;;;;;4.43;4.33;;;18.60;99.90;;;;;;4970440;28;20787;-66
2023/08/17 02:35:50;;;;;;;3.60;3.60;;;18.60;99.90;;;;;;4970359;28;20921;-67
2023/08/17 02:38:17;;;;;;;3.80;3.70;;;18.60;99.90;;;;;;4966704;28;20467;-67
2023/08/17 02:40:44;;;;;;;4.10;4.00;;;18.60;99.90;;;;;;4966405;28;20475;-67
2023/08/17 02:43:12;;;;;;;3.70;3.60;;;18.60;99.90;;;;;;4971068;28;20482;-67
2023/08/17 02:45:38;;;;;;;3.70;3.60;;;18.50;99.90;;;;;;4971442;28;20460;-67
2023/08/17 02:48:07;;;;;;;3.80;3.70;;;18.50;99.90;;;;;;4970088;28;20467;-67
2023/08/17 02:50:35;;;;;;;4.90;4.80;;;18.50;99.90;;;;;;4966443;28;20471;-67
2023/08/17 02:53:03;;;;;;;3.90;3.80;;;18.60;99.90;;;;;;4969675;28;20478;-66
2023/08/17 02:55:29;;;;;;;4.23;4.13;;;18.50;99.90;;;;;;4990706;28;20587;-67
2023/08/17 02:57:56;;;;;;;3.80;3.70;;;18.50;99.90;;;;;;4989583;28;20466;-67
2023/08/17 03:00:23;;;;;;;3.90;3.70;;;18.50;99.90;;;;;;4989875;28;20561;-66
2023/08/17 03:02:50;;;;;;;4.83;4.73;;;18.40;99.90;;;;;;4986607;28;20486;-68
2023/08/17 03:05:20;;;;;;;4.97;4.77;;;18.50;99.90;;;;;;4990350;28;20465;-67
2023/08/17 03:07:47;;;;;;;4.80;4.70;;;18.40;99.90;;;;;;4986457;28;20977;-67
2023/08/17 03:10:15;;;;;;;5.00;4.90;;;18.40;99.90;;;;;;4990110;28;20462;-66
2023/08/17 03:12:42;;;;;;;4.53;4.43;;;18.40;99.90;;;;;;4990107;28;20475;-67
2023/08/17 03:15:10;;;;;;;5.13;5.03;;;18.40;99.90;;;;;;4990137;28;20454;-67
2023/08/17 03:17:37;;;;;;;5.37;5.27;;;18.40;99.90;;;;;;4988765;28;20549;-66
2023/08/17 03:20:06;;;;;;;4.40;4.30;;;18.30;99.90;;;;;;4983074;28;20871;-67
2023/08/17 03:22:34;;;;;;;5.03;4.93;;;18.30;99.90;;;;;;4990205;28;20494;-67
2023/08/17 03:25:02;;;;;;;4.73;4.63;;;18.30;99.90;;;;;;4988908;28;20474;-67
2023/08/17 03:27:30;;;;;;;4.60;4.50;;;18.30;99.90;;;;;;4990488;28;20462;-66
2023/08/17 03:29:57;;;;;;;4.67;4.57;;;18.40;99.90;;;;;;4990358;28;20556;-66
2023/08/17 03:32:24;;;;;;;4.60;4.50;;;18.40;99.90;;;;;;4987959;28;20830;-66
2023/08/17 03:34:51;;;;;;;4.90;4.80;;;18.40;99.90;;;;;;4986283;28;20479;-66
2023/08/17 03:37:18;;;;;;;4.73;4.63;;;18.40;99.90;;;;;;4989655;28;20666;-67
2023/08/17 03:39:46;;;;;;;4.50;4.40;;;18.40;99.90;;;;;;4986428;28;20839;-67
2023/08/17 03:42:15;;;;;;;4.30;4.20;;;18.40;99.90;;;;;;4988618;28;20537;-66
2023/08/17 03:44:41;;;;;;;6.13;5.90;;;18.30;99.90;;;;;;4977494;28;20557;-66
2023/08/17 03:47:08;;;;;;;4.73;4.63;;;18.30;99.90;;;;;;4989602;28;20454;-67
2023/08/17 03:49:35;;;;;;;6.23;5.93;;;18.30;99.90;;;;;;4987621;28;20462;-67
2023/08/17 03:52:02;;;;;;;5.00;4.90;;;18.40;99.90;;;;;;4986128;28;20541;-66
2023/08/17 03:54:28;;;;;;;4.40;4.30;;;18.40;99.90;;;;;;4989536;28;20498;-67
2023/08/17 03:56:57;;;;;;;5.07;4.97;;;18.40;99.90;;;;;;4989718;28;20513;-67
2023/08/17 03:59:24;;;;;;;4.50;4.40;;;18.40;99.90;;;;;;4988250;28;20480;-66
2023/08/17 04:01:52;;;;;;;4.60;4.50;;;18.40;99.90;;;;;;4990562;28;20572;-66
2023/08/17 04:04:19;;;;;;;4.97;4.87;;;18.40;99.90;;;;;;4985752;28;20489;-67
2023/08/17 04:06:46;;;;;;;5.37;5.17;;;18.40;99.90;;;;;;4989303;28;20458;-67
2023/08/17 04:09:13;;;;;;;4.27;4.17;;;18.40;99.90;;;;;;4989109;28;20459;-66
2023/08/17 04:11:40;;;;;;;4.40;4.30;;;18.40;99.90;;;;;;4987348;28;20466;-67
2023/08/17 04:14:09;;;;;;;4.10;4.00;;;18.40;99.90;;;;;;4985516;28;20545;-66
2023/08/17 04:16:36;;;;;;;4.57;4.47;;;18.30;99.90;;;;;;4989121;28;20462;-67
2023/08/17 04:19:05;;;;;;;4.70;4.60;;;18.30;99.90;;;;;;4989167;28;20489;-65
2023/08/17 04:21:33;;;;;;;4.30;4.20;;;18.30;99.90;;;;;;4986139;28;21049;-66
2023/08/17 04:23:59;;;;;;;4.70;4.50;;;18.30;99.90;;;;;;4989350;28;20481;-66
2023/08/17 04:26:26;;;;;;;4.57;4.47;;;18.20;99.90;;;;;;4989245;28;20466;-66
2023/08/17 04:28:54;;;;;;;6.77;6.23;;;18.30;99.90;;;;;;4985403;28;20530;-66
2023/08/17 04:31:22;;;;;;;4.30;4.00;;;18.20;99.90;;;;;;4989126;28;20450;-66
2023/08/17 04:33:50;;;;;;;5.57;5.37;;;18.00;99.90;;;;;;4988100;28;20825;-66
2023/08/17 04:36:16;;;;;;;5.80;5.60;;;18.00;99.90;;;;;;4989464;28;20498;-66
2023/08/17 04:38:45;;;;;;;5.73;5.53;;;18.00;99.90;;;;;;4985524;28;20477;-65
2023/08/17 04:41:13;;;;;;;4.87;4.77;;;18.10;99.90;;;;;;4987459;28;20469;-66
2023/08/17 04:43:40;;;;;;;6.80;6.50;;;18.00;99.90;;;;;;4989370;28;20569;-66
2023/08/17 04:46:06;;;;;;;6.43;6.20;;;18.10;99.90;;;;;;4985273;28;20503;-66
2023/08/17 04:48:35;;;;;;;5.63;5.53;;;18.10;99.90;;;;;;4982550;28;20466;-65
2023/08/17 04:51:02;;;;;;;5.10;5.00;;;18.10;99.90;;;;;;4984401;28;20466;-67
2023/08/17 04:53:29;;;;;;;5.50;5.40;;;18.00;99.90;;;;;;4986170;28;20505;-66
2023/08/17 04:55:57;;;;;;;8.13;7.40;;;18.00;99.90;;;;;;4988603;28;20458;-66
2023/08/17 04:58:24;;;;;;;6.03;5.93;;;18.10;99.90;;;;;;4989118;28;20533;-65
2023/08/17 05:00:51;;;;;;;7.00;6.67;;;18.10;99.90;;;;;;4982935;28;20458;-66
2023/08/17 05:03:18;;;;;;;6.10;6.00;;;18.00;99.90;;;;;;4982645;28;20498;-66
2023/08/17 05:05:46;;;;;;;7.20;6.60;;;18.00;99.90;;;;;;4980855;28;20494;-66
2023/08/17 05:08:13;;;;;;;7.17;6.90;;;18.00;99.90;;;;;;4979487;28;20459;-66
2023/08/17 05:10:40;;;;;;;5.47;5.37;;;18.00;99.90;;;;;;4978616;28;20463;-65
2023/08/17 05:13:07;;;;;;;5.53;5.43;;;18.10;99.90;;;;;;4981789;28;20490;-67
2023/08/17 05:15:33;;;;;;;6.07;5.57;;;18.10;99.90;;;;;;4985725;28;20950;-65
2023/08/17 05:18:01;;;;;;;5.73;5.53;;;18.10;99.90;;;;;;4985937;28;20463;-65
2023/08/17 05:20:27;;;;;;;5.13;4.97;;;18.10;99.90;;;;;;4983336;28;20487;-67
2023/08/17 05:22:56;;;;;;;7.30;6.67;;;18.10;99.90;;;;;;4983977;28;20490;-66
2023/08/17 05:25:26;;;;;;;6.90;6.00;;;18.10;99.90;;;;;;4990235;28;20467;-66
2023/08/17 05:27:53;;;;;;;7.40;7.00;;;18.20;99.90;;;;;;4991507;28;20812;-66
2023/08/17 05:30:21;;;;;;;6.83;6.63;;;18.20;99.90;;;;;;4987895;28;20470;-66
2023/08/17 05:32:48;;;;;;;5.10;5.00;;;18.30;99.90;;;;;;4991738;28;20512;-66
2023/08/17 05:35:15;;;;;;;5.40;5.30;;;18.30;99.90;;;;;;4991840;28;20469;-65
2023/08/17 05:37:42;;;;;;;5.43;5.33;;;18.30;99.90;;;;;;4989250;28;20470;-66
2023/08/17 05:40:11;;;;;;;7.27;6.87;;;18.30;99.90;;;;;;4989924;28;20804;-67
2023/08/17 05:42:38;;;;;;;6.83;6.47;;;18.20;99.90;;;;;;4988557;28;20936;-66
2023/08/17 05:45:06;;;;;;;6.93;6.73;;;18.10;99.90;;;;;;4982517;28;20474;-65
2023/08/17 05:47:35;;;;;;;6.00;5.80;;;18.20;99.90;;;;;;4987158;28;20462;-67
2023/08/17 05:50:02;;;;;;;6.87;6.57;;;18.30;99.90;;;;;;4987040;28;20455;-66
2023/08/17 05:52:29;;;;;;;6.30;6.20;;;18.40;99.90;;;;;;4987654;28;20465;-66
2023/08/17 05:54:56;;;;;;;6.30;6.20;;;18.50;99.90;;;;;;4988442;28;20843;-65
2023/08/17 05:57:24;;;;;;;6.57;6.37;;;18.40;99.90;;;;;;4981709;28;20475;-66
2023/08/17 05:59:51;;;;;;;6.90;6.70;;;18.40;99.90;;;;;;4986921;28;20467;-67
2023/08/17 06:02:18;;;;;;;6.77;6.60;;;18.60;99.90;;;;;;4989640;28;20540;-66
2023/08/17 06:04:45;;;;;;;8.67;8.27;;;18.80;99.90;;;;;;4986358;28;20469;-66
2023/08/17 06:07:12;;;;;;;8.37;8.07;;;18.90;99.90;;;;;;4981274;28;20494;-67
2023/08/17 06:09:39;;;;;;;7.67;7.47;;;18.80;99.90;;;;;;4984730;28;20454;-67
2023/08/17 06:12:07;;;;;;;7.97;7.77;;;18.90;99.90;;;;;;4986364;28;20478;-67
2023/08/17 06:14:35;;;;;;;8.27;7.97;;;19.00;99.90;;;;;;4980408;28;20486;-67
2023/08/17 06:17:02;;;;;;;8.23;7.97;;;19.00;99.90;;;;;;4984952;28;20497;-68
2023/08/17 06:19:30;;;;;;;8.27;8.00;;;18.90;99.90;;;;;;4986195;28;20817;-66
2023/08/17 06:21:56;;;;;;;8.60;8.30;;;18.90;99.90;;;;;;4979956;28;20962;-67
2023/08/17 06:24:23;;;;;;;7.60;7.40;;;19.00;99.90;;;;;;4986973;28;20950;-67
2023/08/17 06:26:50;;;;;;;8.63;8.33;;;19.10;99.90;;;;;;4982332;28;20505;-68
2023/08/17 06:29:17;;;;;;;8.90;8.60;;;19.10;99.90;;;;;;4979808;28;20969;-68
2023/08/17 06:31:46;;;;;;;8.27;8.07;;;19.10;99.90;;;;;;4990072;28;20467;-68
2023/08/17 06:34:13;;;;;;;9.03;8.73;;;19.20;99.90;;;;;;4988403;28;20467;-68
2023/08/17 06:36:40;;;;;;;9.27;8.90;;;19.20;99.90;;;;;;4990163;28;20462;-68
2023/08/17 06:39:07;;;;;;;8.50;8.30;;;19.30;99.90;;;;;;4989379;28;20465;-67
2023/08/17 06:41:35;;;;;;;8.23;8.03;;;19.20;99.90;;;;;;4988840;28;20467;-68
2023/08/17 06:44:02;;;;;;;8.50;8.30;;;19.30;99.90;;;;;;4982814;28;20885;-68
2023/08/17 06:46:28;;;;;;;9.50;9.20;;;19.40;99.90;;;;;;4988848;28;20446;-67
2023/08/17 06:48:57;;;;;;;9.03;8.83;;;19.40;99.90;;;;;;4988841;28;20562;-68
2023/08/17 06:51:24;;;;;;;9.63;9.33;;;19.60;99.90;;;;;;4986166;28;20466;-68
2023/08/17 06:53:51;;;;;;;9.00;8.80;;;19.90;99.90;;;;;;4984722;28;20478;-68
2023/08/17 06:56:18;;;;;;;9.50;9.20;;;20.00;99.90;;;;;;4983080;28;20940;-68
2023/08/17 06:58:45;;;;;;;10.00;9.70;;;20.10;99.90;;;;;;4983141;28;20470;-69
2023/08/17 07:01:16;;;;;;;9.80;9.50;;;20.00;99.90;;;;;;4989138;28;20948;-68
2023/08/17 07:03:43;;;;;;;10.57;10.27;;;20.10;99.90;;;;;;4989700;28;20534;-68
2023/08/17 07:06:11;;;;;;;10.33;10.03;;;20.30;99.90;;;;;;4986634;28;20451;-68
2023/08/17 07:08:38;;;;;;;10.93;10.53;;;20.00;99.90;;;;;;4989035;28;20549;-68
2023/08/17 07:11:06;;;;;;;10.60;10.30;;;20.10;99.90;;;;;;4989621;28;20466;-69
2023/08/17 07:13:33;;;;;;;11.13;10.77;;;20.10;99.90;;;;;;4986125;28;20526;-68
2023/08/17 07:16:01;;;;;;;11.87;11.10;;;20.10;99.90;;;;;;4989841;28;20459;-68
2023/08/17 07:18:28;;;;;;;10.57;10.20;;;20.00;99.90;;;;;;4983343;28;20462;-68
2023/08/17 07:20:55;;;;;;;9.63;9.43;;;20.00;99.90;;;;;;4983401;28;21054;-68
2023/08/17 07:23:23;;;;;;;9.63;9.37;;;19.90;99.90;;;;;;4987491;28;20766;-68
2023/08/17 07:25:50;;;;;;;9.60;9.40;;;19.90;99.90;;;;;;4975904;28;21042;-68
2023/08/17 07:28:17;;;;;;;10.17;9.87;;;20.20;99.90;;;;;;4979210;28;20467;-68
2023/08/17 07:30:44;;;;;;;10.10;9.90;;;20.40;99.90;;;;;;4980288;28;20478;-67
2023/08/17 07:33:11;;;;;;;10.60;10.30;;;20.50;99.90;;;;;;4981959;28;20472;-67
2023/08/17 07:35:38;;;;;;;11.67;11.37;;;20.40;99.90;;;;;;4976789;28;20840;-68
2023/08/17 07:38:05;;;;;;;11.50;11.20;;;20.40;99.90;;;;;;4982611;28;20467;-68
2023/08/17 07:40:33;;;;;;;10.60;10.30;;;20.50;99.90;;;;;;4980557;28;20467;-68
2023/08/17 07:43:01;;;;;;;10.77;10.47;;;20.60;99.90;;;;;;4978582;28;20506;-68
2023/08/17 07:45:28;;;;;;;10.80;10.50;;;20.40;99.90;;;;;;4984793;28;20466;-68
2023/08/17 07:47:55;;;;;;;10.50;10.20;;;20.40;99.90;;;;;;4977182;28;20509;-69
2023/08/17 07:50:22;;;;;;;10.60;10.30;;;20.60;99.90;;;;;;4984150;28;20463;-67
2023/08/17 07:52:49;;;;;;;12.73;12.17;;;20.70;99.90;;;;;;4982503;28;20512;-67
2023/08/17 07:55:16;;;;;;;11.80;11.30;;;20.80;99.90;;;;;;4981219;28;20494;-67
2023/08/17 07:57:44;;;;;;;10.60;10.30;;;20.80;99.90;;;;;;4988685;28;20924;-69
2023/08/17 08:00:12;;;;;;;9.93;9.73;;;20.60;99.90;;;;;;4986956;28;20467;-67
2023/08/17 08:02:39;;;;;;;11.73;11.33;;;20.40;99.90;;;;;;4988770;28;20460;-67
2023/08/17 08:05:07;;;;;;;9.80;9.60;;;20.60;99.90;;;;;;4982280;28;20493;-69
2023/08/17 08:07:34;;;;;;;9.87;9.63;;;20.60;99.90;;;;;;4987376;28;20478;-68
2023/08/17 08:10:01;;;;;;;10.20;10.00;;;20.50;99.90;;;;;;4988924;28;20466;-67
2023/08/17 08:12:29;;;;;;;11.00;10.73;;;20.50;99.90;;;;;;4988816;28;20462;-68
2023/08/17 08:14:57;;;;;;;10.40;10.10;;;20.80;99.90;;;;;;4988198;28;20513;-67
2023/08/17 08:17:24;;;;;;;10.30;10.10;;;21.00;99.90;;;;;;4995322;28;20459;-67
2023/08/17 08:19:51;;;;;;;11.00;10.70;;;21.10;99.90;;;;;;4983580;28;20459;-68
2023/08/17 08:22:18;;;;;;;11.10;10.80;;;21.00;99.90;;;;;;4988266;28;20810;-69
2023/08/17 08:24:45;;;;;;;10.03;9.83;;;20.90;99.90;;;;;;4985327;28;20498;-67
2023/08/17 08:27:11;;;;;;;10.70;10.40;;;20.80;99.90;;;;;;4988407;28;20463;-68
2023/08/17 08:29:38;;;;;;;11.70;11.30;;;20.90;99.90;;;;;;4985122;28;20554;-68
2023/08/17 08:32:07;;;;;;;11.13;10.83;;;20.80;99.90;;;;;;4986690;28;20462;-69
2023/08/17 08:34:34;;;;;;;11.57;11.27;;;20.60;99.90;;;;;;4982496;28;20884;-67
2023/08/17 08:37:01;;;;;;;13.30;12.87;;;20.70;99.90;;;;;;4980407;28;20548;-67
2023/08/17 08:39:28;;;;;;;11.70;11.40;;;21.00;99.90;;;;;;4983178;28;20554;-67
2023/08/17 08:41:55;;;;;;;11.70;11.40;;;21.30;99.90;;;;;;4984970;28;20554;-67
2023/08/17 08:44:23;;;;;;;11.57;11.27;;;21.30;99.90;;;;;;4982328;28;20491;-67
2023/08/17 08:46:50;;;;;;;11.40;11.10;;;21.50;99.90;;;;;;4972777;28;20489;-67
2023/08/17 08:49:21;;;;;;;11.60;11.30;;;21.60;99.90;;;;;;4973164;28;20542;-66
2023/08/17 08:51:51;;;;;;;11.77;11.47;;;21.60;99.90;;;;;;4973185;28;20549;-68
2023/08/17 08:54:22;;;;;;;11.80;11.50;;;21.90;99.90;;;;;;4984325;28;21048;-67
2023/08/17 08:56:55;;;;;;;11.97;11.63;;;22.00;99.90;;;;;;4987087;28;20458;-67
2023/08/17 08:59:24;;;;;;;11.30;11.00;;;21.70;99.90;;;;;;4989566;28;20502;-65
2023/08/17 09:01:51;;;;;;;11.60;11.30;;;21.90;99.90;;;;;;4982019;28;20478;-67
2023/08/17 09:04:19;;;;;;;12.10;11.80;;;21.70;99.90;;;;;;4985356;28;20865;-67
2023/08/17 09:06:47;;;;;;;11.30;11.00;;;21.80;99.90;;;;;;4983565;28;20462;-68
2023/08/17 09:09:16;;;;;;;12.20;11.90;;;22.00;99.90;;;;;;4989900;28;20466;-68
2023/08/17 09:11:43;;;;;;;12.20;11.90;;;22.10;99.90;;;;;;4989066;28;20497;-66
2023/08/17 09:14:10;;;;;;;12.53;12.23;;;22.40;99.90;;;;;;4990034;28;20576;-67
2023/08/17 09:16:37;;;;;;;12.40;12.10;;;22.60;99.90;;;;;;4988645;28;20490;-68
2023/08/17 09:19:06;;;;;;;13.43;12.83;;;22.60;99.90;;;;;;4986670;28;20471;-66
2023/08/17 09:21:34;;;;;;;12.50;12.20;;;22.40;99.90;;;;;;4986976;28;20810;-66
2023/08/17 09:24:01;;;;;;;13.00;12.60;;;22.40;99.90;;;;;;4988839;28;20470;-67
2023/08/17 09:26:32;;;;;;;11.90;11.60;;;22.20;99.90;;;;;;4988780;28;20949;-68
2023/08/17 09:29:01;;;;;;;11.70;11.40;;;21.90;99.90;;;;;;4989419;28;20490;-66
2023/08/17 09:31:32;;;;;;;12.40;12.10;;;21.90;99.90;;;;;;4985468;28;20965;-67
2023/08/17 09:33:58;;;;;;;11.23;10.93;;;21.90;99.90;;;;;;4990238;28;20553;-66
2023/08/17 09:36:27;;;;;;;11.40;11.10;;;21.90;99.90;;;;;;4986832;28;20471;-67
2023/08/17 09:38:57;;;;;;;11.43;11.13;;;21.90;99.90;;;;;;4987710;28;20470;-68
2023/08/17 09:41:24;;;;;;;11.20;10.90;;;21.80;99.90;;;;;;4987920;28;20518;-67
2023/08/17 09:43:51;;;;;;;11.20;10.90;;;21.70;99.90;;;;;;4988765;28;20933;-67
2023/08/17 09:46:19;;;;;;;11.97;11.67;;;21.90;99.90;;;;;;4985630;28;20498;-66
2023/08/17 09:48:46;;;;;;;12.03;11.73;;;21.90;99.90;;;;;;4984357;28;20458;-66
2023/08/17 09:51:16;;;;;;;11.83;11.53;;;21.60;99.90;;;;;;4989406;28;20491;-66
2023/08/17 09:53:43;;;;;;;11.40;11.10;;;21.60;99.90;;;;;;4978446;28;20597;-66
2023/08/17 09:56:13;;;;;;;10.90;10.70;;;21.60;99.90;;;;;;4989025;28;20458;-66
2023/08/17 09:58:40;;;;;;;11.27;10.97;;;21.80;99.90;;;;;;4985299;28;20693;-67
2023/08/17 10:01:09;;;;;;;11.60;11.30;;;21.70;99.90;;;;;;4988599;28;20463;-68
2023/08/17 10:03:40;;;;;;;11.43;11.13;;;21.70;99.90;;;;;;4988933;28;20482;-66
2023/08/17 10:06:09;;;;;;;11.50;11.20;;;21.80;99.90;;;;;;4989326;28;20483;-68
2023/08/17 10:08:43;;;;;;;11.60;11.30;;;22.00;99.90;;;;;;4983409;28;20458;-65
2023/08/17 10:11:15;;;;;;;12.00;11.70;;;22.00;99.90;;;;;;4988972;28;20541;-66
2023/08/17 10:13:47;;;;;;;11.70;11.40;;;22.20;99.90;;;;;;4988530;28;20479;-67
2023/08/17 10:16:23;;;;;;;11.67;11.37;;;22.30;99.90;;;;;;4986739;28;20466;-67
2023/08/17 10:18:54;;;;;;;11.60;11.30;;;22.20;99.90;;;;;;4982071;28;20837;-66
2023/08/17 10:21:26;;;;;;;12.00;11.70;;;22.00;99.90;;;;;;4986208;28;20486;-66
2023/08/17 10:23:56;;;;;;;11.77;11.47;;;22.20;99.90;;;;;;4978262;28;20486;-67
2023/08/17 10:26:25;;;;;;;11.43;11.13;;;22.30;99.90;;;;;;4988039;28;20489;-68
2023/08/17 10:28:54;;;;;;;11.40;11.10;;;22.20;99.90;;;;;;4989160;28;20489;-66
2023/08/17 10:31:21;;;;;;;11.03;10.73;;;22.10;99.90;;;;;;4984339;28;20494;-66
2023/08/17 10:33:49;;;;;;;10.60;10.40;;;22.00;99.90;;;;;;4988223;28;20462;-66
2023/08/17 10:36:17;;;;;;;10.10;9.90;;;22.00;99.90;;;;;;4983617;28;20862;-67
2023/08/17 10:38:44;;;;;;;10.30;10.10;;;22.00;99.90;;;;;;4987869;28;20466;-67
2023/08/17 10:41:12;;;;;;;10.70;10.50;;;22.10;99.90;;;;;;4984812;28;20466;-66
2023/08/17 10:43:57;;;;;;;10.20;10.00;;;22.10;99.90;;;;;;4985989;28;20879;-67
2023/08/17 10:46:34;;;;;;;10.00;9.80;;;22.00;99.90;;;;;;4988506;28;20469;-66
2023/08/17 10:49:05;;;;;;;10.97;10.73;;;22.00;99.90;;;;;;4982986;28;21216;-68
2023/08/17 10:51:32;;;;;;;11.43;11.13;;;21.90;99.90;;;;;;4986994;28;20470;-67
2023/08/17 10:54:02;;;;;;;11.23;10.93;;;22.00;99.90;;;;;;4980453;28;20495;-66
2023/08/17 10:56:30;;;;;;;10.73;10.53;;;22.30;99.90;;;;;;4968703;28;20513;-67
2023/08/17 10:59:02;;;;;;;10.90;10.70;;;22.30;99.90;;;;;;4967181;28;20519;-67
2023/08/17 11:01:36;;;;;;;11.40;11.10;;;22.30;99.90;;;;;;4962314;28;20463;-68
2023/08/17 11:04:16;;;;;;;11.00;10.70;;;22.60;99.90;;;;;;4964858;28;20479;-68
2023/08/17 11:06:44;;;;;;;11.50;11.20;;;22.50;99.90;;;;;;4966663;28;20474;-67
2023/08/17 11:09:11;;;;;;;11.50;11.20;;;22.70;99.90;;;;;;4966012;28;20460;-67
2023/08/17 11:11:38;;;;;;;11.53;11.23;;;23.20;99.90;;;;;;4967040;28;20570;-67
2023/08/17 11:14:06;;;;;;;11.47;11.17;;;23.20;99.90;;;;;;4963416;28;20494;-67
2023/08/17 11:16:33;;;;;;;11.60;11.30;;;23.10;99.90;;;;;;4967398;28;20474;-67
2023/08/17 11:19:01;;;;;;;11.30;11.00;;;22.90;99.90;;;;;;4965910;28;20464;-66
2023/08/17 11:21:28;;;;;;;11.50;11.20;;;22.60;99.90;;;;;;4964787;28;20467;-67
2023/08/17 11:23:58;;;;;;;11.80;11.50;;;22.40;99.90;;;;;;4967731;28;20887;-67
2023/08/17 11:26:25;;;;;;;11.60;11.30;;;22.60;99.90;;;;;;4964546;28;20456;-67
2023/08/17 11:28:52;;;;;;;11.20;10.90;;;22.50;99.90;;;;;;4961093;28;20892;-67
2023/08/17 11:31:21;;;;;;;10.90;10.70;;;22.50;99.90;;;;;;4960023;28;20463;-68
2023/08/17 11:33:50;;;;;;;11.47;11.17;;;22.50;99.90;;;;;;4962806;28;20467;-66
2023/08/17 11:36:17;;;;;;;11.27;10.97;;;22.30;99.90;;;;;;4966100;28;20463;-68
2023/08/17 11:38:45;;;;;;;11.40;11.10;;;22.40;99.90;;;;;;4965158;28;20478;-68
2023/08/17 11:41:14;;;;;;;11.50;11.20;;;22.80;99.90;;;;;;4963082;28;20468;-68
2023/08/17 11:43:41;;;;;;;11.80;11.50;;;22.90;99.90;;;;;;4960294;28;20501;-67
2023/08/17 11:46:08;;;;;;;11.73;11.43;;;23.10;99.90;;;;;;4967098;28;20849;-67
2023/08/17 11:48:37;;;;;;;11.87;11.57;;;23.20;99.90;;;;;;4961782;28;20463;-67
2023/08/17 11:51:05;;;;;;;12.03;11.73;;;23.40;99.90;;;;;;4958766;28;20467;-67
2023/08/17 11:53:36;;;;;;;11.53;11.23;;;23.70;99.90;;;;;;4967044;28;20486;-68
2023/08/17 11:56:03;;;;;;;11.70;11.40;;;23.70;99.90;;;;;;4987365;28;20470;-67
2023/08/17 11:58:43;;;;;;;11.57;11.27;;;23.70;99.90;;;;;;4983372;28;20466;-68
2023/08/17 12:01:12;;;;;;;11.90;11.60;;;23.90;99.90;;;;;;4980988;28;20894;-67
2023/08/17 12:03:41;;;;;;;12.13;11.83;;;24.00;99.90;;;;;;4980136;28;20462;-67
2023/08/17 12:06:08;;;;;;;11.93;11.63;;;24.20;99.90;;;;;;4980892;28;20490;-67
2023/08/17 12:08:36;;;;;;;11.50;11.20;;;24.10;99.90;;;;;;4981278;28;20541;-67
2023/08/17 12:11:03;;;;;;;11.60;11.30;;;24.00;99.90;;;;;;4980080;28;20467;-67
2023/08/17 12:13:32;;;;;;;12.20;11.90;;;24.10;99.90;;;;;;4986855;28;20478;-68
2023/08/17 12:15:59;;;;;;;12.10;11.80;;;23.90;99.90;;;;;;4986710;28;20461;-67
2023/08/17 12:18:26;;;;;;;12.47;12.17;;;24.00;99.90;;;;;;4985742;28;20455;-68
2023/08/17 12:20:56;;;;;;;12.10;11.80;;;24.30;99.90;;;;;;4983134;28;20669;-67
2023/08/17 12:23:23;;;;;;;12.37;12.07;;;24.80;99.90;;;;;;4986640;28;20553;-68
2023/08/17 12:25:55;;;;;;;12.13;11.83;;;24.80;99.90;;;;;;4982957;28;20482;-68
2023/08/17 12:28:24;;;;;;;12.13;11.83;;;24.50;99.90;;;;;;4982368;28;20529;-67
2023/08/17 12:30:59;;;;;;;12.10;11.80;;;24.40;99.90;;;;;;4986618;28;20535;-69
2023/08/17 12:33:27;;;;;;;11.77;11.47;;;24.20;99.90;;;;;;4983320;28;20473;-68
2023/08/17 12:35:56;;;;;;;11.80;11.50;;;23.90;99.90;;;;;;4983037;28;20470;-68
2023/08/17 12:38:24;;;;;;;11.57;11.27;;;23.70;99.90;;;;;;4981779;28;20589;-67
2023/08/17 12:40:51;;;;;;;11.60;11.30;;;23.70;99.90;;;;;;4981499;28;20950;-68